sensor_id;sensor_type;location;lat;lon;timestamp;pressure;altitude;pressure_sealevel;temperature;humidity
61324;BME280;47203;48.428;11.974;2024-02-21T00:00:29;97784.53;;;10.55;43.94
61324;BME280;47203;48.428;11.974;2024-02-21T00:02:32;97794.03;;;10.56;44.07
61324;BME280;47203;48.428;11.974;2024-02-21T00:04:36;97782.72;;;10.56;44.07
61324;BME280;47203;48.428;11.974;2024-02-21T00:06:40;97782.94;;;10.54;44.00
61324;BME280;47203;48.428;11.974;2024-02-21T00:08:46;97783.16;;;10.53;43.89
61324;BME280;47203;48.428;11.974;2024-02-21T00:10:49;97787.41;;;10.54;43.93
61324;BME280;47203;48.428;11.974;2024-02-21T00:12:53;97782.38;;;10.52;43.97
61324;BME280;47203;48.428;11.974;2024-02-21T00:14:56;97788.66;;;10.51;44.03
61324;BME280;47203;48.428;11.974;2024-02-21T00:17:01;97779.19;;;10.50;44.08
61324;BME280;47203;48.428;11.974;2024-02-21T00:19:03;97778.94;;;10.52;43.97
61324;BME280;47203;48.428;11.974;2024-02-21T00:21:07;97783.41;;;10.51;43.91
61324;BME280;47203;48.428;11.974;2024-02-21T00:23:11;97773.09;;;10.50;43.95
61324;BME280;47203;48.428;11.974;2024-02-21T00:25:14;97771.53;;;10.48;44.03
61324;BME280;47203;48.428;11.974;2024-02-21T00:27:17;97770.94;;;10.46;44.02
61324;BME280;47203;48.428;11.974;2024-02-21T00:29:21;97772.22;;;10.44;44.14
61324;BME280;47203;48.428;11.974;2024-02-21T00:31:24;97767.28;;;10.47;44.07
61324;BME280;47203;48.428;11.974;2024-02-21T00:33:30;97763.88;;;10.47;44.04
61324;BME280;47203;48.428;11.974;2024-02-21T00:35:34;97761.00;;;10.48;44.05
61324;BME280;47203;48.428;11.974;2024-02-21T00:37:37;97766.03;;;10.50;43.98
61324;BME280;47203;48.428;11.974;2024-02-21T00:39:40;97759.94;;;10.50;44.13
61324;BME280;47203;48.428;11.974;2024-02-21T00:41:44;97762.59;;;10.50;44.07
61324;BME280;47203;48.428;11.974;2024-02-21T00:43:47;97757.88;;;10.52;44.19
61324;BME280;47203;48.428;11.974;2024-02-21T00:45:52;97750.00;;;10.52;44.03
61324;BME280;47203;48.428;11.974;2024-02-21T00:47:56;97751.56;;;10.53;43.95
61324;BME280;47203;48.428;11.974;2024-02-21T00:50:01;97752.38;;;10.53;44.01
61324;BME280;47203;48.428;11.974;2024-02-21T00:52:08;97752.16;;;10.55;43.97
61324;BME280;47203;48.428;11.974;2024-02-21T00:54:10;97750.31;;;10.55;44.01
61324;BME280;47203;48.428;11.974;2024-02-21T00:56:14;97750.31;;;10.55;43.97
61324;BME280;47203;48.428;11.974;2024-02-21T00:58:18;97748.50;;;10.56;44.02
61324;BME280;47203;48.428;11.974;2024-02-21T01:00:22;97735.56;;;10.54;43.97
61324;BME280;47203;48.428;11.974;2024-02-21T01:02:25;97738.19;;;10.54;44.09
61324;BME280;47203;48.428;11.974;2024-02-21T01:04:29;97739.00;;;10.55;43.99
61324;BME280;47203;48.428;11.974;2024-02-21T01:06:33;97737.63;;;10.52;44.18
61324;BME280;47203;48.428;11.974;2024-02-21T01:08:36;97740.00;;;10.54;44.10
61324;BME280;47203;48.428;11.974;2024-02-21T01:10:39;97733.16;;;10.53;44.13
61324;BME280;47203;48.428;11.974;2024-02-21T01:12:43;97735.00;;;10.52;44.08
61324;BME280;47203;48.428;11.974;2024-02-21T01:14:46;97732.34;;;10.52;44.01
61324;BME280;47203;48.428;11.974;2024-02-21T01:16:51;97726.06;;;10.53;44.17
61324;BME280;47203;48.428;11.974;2024-02-21T01:18:54;97732.13;;;10.54;44.20
61324;BME280;47203;48.428;11.974;2024-02-21T01:20:58;97728.94;;;10.52;44.03
61324;BME280;47203;48.428;11.974;2024-02-21T01:23:04;97719.69;;;10.49;44.21
61324;BME280;47203;48.428;11.974;2024-02-21T01:25:08;97729.41;;;10.48;44.13
61324;BME280;47203;48.428;11.974;2024-02-21T01:27:12;97723.81;;;10.45;44.26
61324;BME280;47203;48.428;11.974;2024-02-21T01:29:14;97729.56;;;10.42;44.23
61324;BME280;47203;48.428;11.974;2024-02-21T01:31:17;97714.00;;;10.40;44.25
61324;BME280;47203;48.428;11.974;2024-02-21T01:33:21;97715.03;;;10.39;44.43
61324;BME280;47203;48.428;11.974;2024-02-21T01:35:24;97717.13;;;10.37;44.36
61324;BME280;47203;48.428;11.974;2024-02-21T01:37:28;97714.97;;;10.34;44.35
61324;BME280;47203;48.428;11.974;2024-02-21T01:39:33;97708.06;;;10.33;44.31
61324;BME280;47203;48.428;11.974;2024-02-21T01:41:36;97707.28;;;10.33;44.21
61324;BME280;47203;48.428;11.974;2024-02-21T01:43:40;97700.66;;;10.30;44.38
61324;BME280;47203;48.428;11.974;2024-02-21T01:45:45;97692.41;;;10.26;44.50
61324;BME280;47203;48.428;11.974;2024-02-21T01:47:50;97693.72;;;10.24;44.50
61324;BME280;47203;48.428;11.974;2024-02-21T01:49:54;97691.56;;;10.21;44.39
61324;BME280;47203;48.428;11.974;2024-02-21T01:51:58;97690.44;;;10.17;44.63
61324;BME280;47203;48.428;11.974;2024-02-21T01:54:01;97686.44;;;10.14;44.72
61324;BME280;47203;48.428;11.974;2024-02-21T01:56:07;97686.69;;;10.12;44.69
61324;BME280;47203;48.428;11.974;2024-02-21T01:58:12;97676.16;;;10.12;44.71
61324;BME280;47203;48.428;11.974;2024-02-21T02:00:17;97677.19;;;10.11;44.73
61324;BME280;47203;48.428;11.974;2024-02-21T02:02:22;97679.56;;;10.13;44.86
61324;BME280;47203;48.428;11.974;2024-02-21T02:04:26;97675.91;;;10.14;44.99
61324;BME280;47203;48.428;11.974;2024-02-21T02:06:31;97674.31;;;10.13;44.76
61324;BME280;47203;48.428;11.974;2024-02-21T02:08:34;97666.19;;;10.14;44.84
61324;BME280;47203;48.428;11.974;2024-02-21T02:10:39;97663.53;;;10.14;44.94
61324;BME280;47203;48.428;11.974;2024-02-21T02:12:45;97660.38;;;10.12;44.79
61324;BME280;47203;48.428;11.974;2024-02-21T02:14:58;97664.03;;;10.11;45.02
61324;BME280;47203;48.428;11.974;2024-02-21T02:17:00;97657.50;;;10.14;44.82
61324;BME280;47203;48.428;11.974;2024-02-21T02:19:05;97656.72;;;10.13;44.92
61324;BME280;47203;48.428;11.974;2024-02-21T02:21:28;97658.75;;;10.11;44.96
61324;BME280;47203;48.428;11.974;2024-02-21T02:23:34;97651.22;;;10.15;45.00
61324;BME280;47203;48.428;11.974;2024-02-21T02:25:39;97653.84;;;10.15;44.95
61324;BME280;47203;48.428;11.974;2024-02-21T02:27:42;97647.53;;;10.16;45.01
61324;BME280;47203;48.428;11.974;2024-02-21T02:29:47;97649.13;;;10.17;44.95
61324;BME280;47203;48.428;11.974;2024-02-21T02:31:51;97654.16;;;10.19;44.94
61324;BME280;47203;48.428;11.974;2024-02-21T02:33:54;97644.44;;;10.19;44.84
61324;BME280;47203;48.428;11.974;2024-02-21T02:35:57;97634.72;;;10.20;44.98
61324;BME280;47203;48.428;11.974;2024-02-21T02:38:01;97625.78;;;10.21;44.93
61324;BME280;47203;48.428;11.974;2024-02-21T02:40:07;97625.22;;;10.19;44.93
61324;BME280;47203;48.428;11.974;2024-02-21T02:42:11;97627.59;;;10.20;44.97
61324;BME280;47203;48.428;11.974;2024-02-21T02:44:14;97622.59;;;10.19;44.80
61324;BME280;47203;48.428;11.974;2024-02-21T02:46:18;97628.09;;;10.17;45.02
61324;BME280;47203;48.428;11.974;2024-02-21T02:48:21;97617.31;;;10.19;45.01
61324;BME280;47203;48.428;11.974;2024-02-21T02:50:26;97620.78;;;10.19;44.94
61324;BME280;47203;48.428;11.974;2024-02-21T02:52:30;97632.88;;;10.20;44.90
61324;BME280;47203;48.428;11.974;2024-02-21T02:54:33;97614.44;;;10.20;44.97
61324;BME280;47203;48.428;11.974;2024-02-21T02:56:38;97617.31;;;10.19;45.07
61324;BME280;47203;48.428;11.974;2024-02-21T02:58:40;97609.44;;;10.19;45.04
61324;BME280;47203;48.428;11.974;2024-02-21T03:00:44;97612.06;;;10.19;45.20
61324;BME280;47203;48.428;11.974;2024-02-21T03:02:50;97603.63;;;10.17;45.13
61324;BME280;47203;48.428;11.974;2024-02-21T03:04:53;97608.63;;;10.18;45.04
61324;BME280;47203;48.428;11.974;2024-02-21T03:06:56;97615.72;;;10.18;45.06
61324;BME280;47203;48.428;11.974;2024-02-21T03:09:00;97606.25;;;10.17;44.93
61324;BME280;47203;48.428;11.974;2024-02-21T03:11:03;97605.19;;;10.18;45.16
61324;BME280;47203;48.428;11.974;2024-02-21T03:13:08;97612.28;;;10.17;45.17
61324;BME280;47203;48.428;11.974;2024-02-21T03:15:13;97610.00;;;10.21;45.18
61324;BME280;47203;48.428;11.974;2024-02-21T03:17:17;97612.63;;;10.21;44.93
61324;BME280;47203;48.428;11.974;2024-02-21T03:19:20;97610.00;;;10.21;45.13
61324;BME280;47203;48.428;11.974;2024-02-21T03:21:24;97604.97;;;10.19;45.12
61324;BME280;47203;48.428;11.974;2024-02-21T03:23:28;97609.44;;;10.19;45.20
61324;BME280;47203;48.428;11.974;2024-02-21T03:25:31;97605.44;;;10.16;45.18
61324;BME280;47203;48.428;11.974;2024-02-21T03:27:35;97609.91;;;10.16;45.36
61324;BME280;47203;48.428;11.974;2024-02-21T03:29:40;97607.28;;;10.16;45.21
61324;BME280;47203;48.428;11.974;2024-02-21T03:31:43;97612.28;;;10.17;45.32
61324;BME280;47203;48.428;11.974;2024-02-21T03:33:47;97609.66;;;10.17;45.24
61324;BME280;47203;48.428;11.974;2024-02-21T03:35:50;97602.81;;;10.16;45.38
61324;BME280;47203;48.428;11.974;2024-02-21T03:37:53;97607.03;;;10.17;45.29
61324;BME280;47203;48.428;11.974;2024-02-21T03:39:57;97606.78;;;10.19;45.44
61324;BME280;47203;48.428;11.974;2024-02-21T03:42:02;97610.00;;;10.21;45.36
61324;BME280;47203;48.428;11.974;2024-02-21T03:44:06;97601.28;;;10.20;45.36
61324;BME280;47203;48.428;11.974;2024-02-21T03:46:12;97596.03;;;10.20;45.49
61324;BME280;47203;48.428;11.974;2024-02-21T03:48:15;97597.88;;;10.20;45.49
61324;BME280;47203;48.428;11.974;2024-02-21T03:50:19;97595.78;;;10.22;45.41
61324;BME280;47203;48.428;11.974;2024-02-21T03:52:24;97587.91;;;10.22;45.37
61324;BME280;47203;48.428;11.974;2024-02-21T03:54:27;97592.63;;;10.20;45.44
61324;BME280;47203;48.428;11.974;2024-02-21T03:56:31;97591.25;;;10.17;45.39
61324;BME280;47203;48.428;11.974;2024-02-21T03:58:34;97586.00;;;10.17;45.40
61324;BME280;47203;48.428;11.974;2024-02-21T04:00:38;97586.00;;;10.17;45.39
61324;BME280;47203;48.428;11.974;2024-02-21T04:02:43;97589.66;;;10.16;45.53
61324;BME280;47203;48.428;11.974;2024-02-21T04:04:46;97579.69;;;10.18;45.34
61324;BME280;47203;48.428;11.974;2024-02-21T04:06:51;97583.34;;;10.17;45.42
61324;BME280;47203;48.428;11.974;2024-02-21T04:08:56;97583.94;;;10.19;45.45
61324;BME280;47203;48.428;11.974;2024-02-21T04:10:59;97581.50;;;10.18;45.42
61324;BME280;47203;48.428;11.974;2024-02-21T04:13:04;97583.94;;;10.19;45.50
61324;BME280;47203;48.428;11.974;2024-02-21T04:15:08;97576.50;;;10.16;45.46
61324;BME280;47203;48.428;11.974;2024-02-21T04:17:12;97573.06;;;10.16;45.75
61324;BME280;47203;48.428;11.974;2024-02-21T04:19:16;97576.50;;;10.16;45.61
61324;BME280;47203;48.428;11.974;2024-02-21T04:21:19;97575.22;;;10.19;45.53
61324;BME280;47203;48.428;11.974;2024-02-21T04:23:22;97570.78;;;10.19;45.56
61324;BME280;47203;48.428;11.974;2024-02-21T04:25:25;97563.69;;;10.20;45.55
61324;BME280;47203;48.428;11.974;2024-02-21T04:27:29;97570.53;;;10.21;45.41
61324;BME280;47203;48.428;11.974;2024-02-21T04:29:32;97563.69;;;10.20;45.59
61324;BME280;47203;48.428;11.974;2024-02-21T04:31:36;97566.06;;;10.21;45.54
61324;BME280;47203;48.428;11.974;2024-02-21T04:33:40;97565.81;;;10.23;45.68
61324;BME280;47203;48.428;11.974;2024-02-21T04:35:43;97565.81;;;10.23;45.63
61324;BME280;47203;48.428;11.974;2024-02-21T04:37:47;97565.34;;;10.26;45.61
61324;BME280;47203;48.428;11.974;2024-02-21T04:39:50;97570.34;;;10.27;45.57
61324;BME280;47203;48.428;11.974;2024-02-21T04:41:54;97562.47;;;10.27;45.61
61324;BME280;47203;48.428;11.974;2024-02-21T04:43:57;97562.22;;;10.29;45.53
61324;BME280;47203;48.428;11.974;2024-02-21T04:46:01;97561.19;;;10.30;45.54
61324;BME280;47203;48.428;11.974;2024-02-21T04:48:05;97561.97;;;10.30;45.42
61324;BME280;47203;48.428;11.974;2024-02-21T04:50:09;97549.06;;;10.29;45.79
61324;BME280;47203;48.428;11.974;2024-02-21T04:52:14;97551.94;;;10.27;45.52
61324;BME280;47203;48.428;11.974;2024-02-21T04:54:17;97548.28;;;10.28;45.52
61324;BME280;47203;48.428;11.974;2024-02-21T04:56:21;97540.38;;;10.28;45.52
61324;BME280;47203;48.428;11.974;2024-02-21T04:58:24;97536.97;;;10.28;45.60
61324;BME280;47203;48.428;11.974;2024-02-21T05:00:28;97527.47;;;10.27;45.42
61324;BME280;47203;48.428;11.974;2024-02-21T05:02:31;97525.88;;;10.26;45.48
61324;BME280;47203;48.428;11.974;2024-02-21T05:04:35;97519.25;;;10.23;45.54
61324;BME280;47203;48.428;11.974;2024-02-21T05:06:42;97509.22;;;10.20;45.60
61324;BME280;47203;48.428;11.974;2024-02-21T05:08:47;97520.22;;;10.17;45.44
61324;BME280;47203;48.428;11.974;2024-02-21T05:10:51;97512.31;;;10.17;45.60
61324;BME280;47203;48.428;11.974;2024-02-21T05:12:54;97508.09;;;10.16;45.47
61324;BME280;47203;48.428;11.974;2024-02-21T05:14:58;97504.69;;;10.16;45.46
61324;BME280;47203;48.428;11.974;2024-02-21T05:17:01;97502.84;;;10.16;45.60
61324;BME280;47203;48.428;11.974;2024-02-21T05:19:05;97506.53;;;10.15;45.53
61324;BME280;47203;48.428;11.974;2024-02-21T05:21:09;97498.88;;;10.13;45.70
61324;BME280;47203;48.428;11.974;2024-02-21T05:23:13;97507.56;;;10.14;45.60
61324;BME280;47203;48.428;11.974;2024-02-21T05:25:17;97496.50;;;10.12;45.49
61324;BME280;47203;48.428;11.974;2024-02-21T05:27:20;97494.09;;;10.10;45.54
61324;BME280;47203;48.428;11.974;2024-02-21T05:29:24;97489.63;;;10.11;45.54
61324;BME280;47203;48.428;11.974;2024-02-21T05:31:54;97484.28;;;10.06;45.51
61324;BME280;47203;48.428;11.974;2024-02-21T05:33:59;97484.84;;;10.08;45.57
61324;BME280;47203;48.428;11.974;2024-02-21T05:36:06;97486.66;;;10.07;45.64
61324;BME280;47203;48.428;11.974;2024-02-21T05:38:10;97480.09;;;10.05;45.54
61324;BME280;47203;48.428;11.974;2024-02-21T05:40:14;97479.25;;;10.04;45.56
61324;BME280;47203;48.428;11.974;2024-02-21T05:42:19;97483.75;;;10.04;45.63
61324;BME280;47203;48.428;11.974;2024-02-21T05:44:22;97480.31;;;10.03;45.55
61324;BME280;47203;48.428;11.974;2024-02-21T05:46:29;97478.97;;;10.01;45.75
61324;BME280;47203;48.428;11.974;2024-02-21T05:48:32;97475.53;;;10.00;45.79
61324;BME280;47203;48.428;11.974;2024-02-21T05:50:41;97467.09;;;9.98;45.77
61324;BME280;47203;48.428;11.974;2024-02-21T05:52:44;97463.66;;;9.98;45.71
61324;BME280;47203;48.428;11.974;2024-02-21T05:54:47;97456.03;;;9.96;45.75
61324;BME280;47203;48.428;11.974;2024-02-21T05:56:52;97452.81;;;9.94;45.85
61324;BME280;47203;48.428;11.974;2024-02-21T05:58:57;97455.94;;;9.91;45.90
61324;BME280;47203;48.428;11.974;2024-02-21T06:01:00;97453.56;;;9.89;45.93
61324;BME280;47203;48.428;11.974;2024-02-21T06:03:05;97450.13;;;9.89;45.81
61324;BME280;47203;48.428;11.974;2024-02-21T06:05:09;97449.31;;;9.88;45.91
61324;BME280;47203;48.428;11.974;2024-02-21T06:07:12;97447.75;;;9.87;45.80
61324;BME280;47203;48.428;11.974;2024-02-21T06:09:16;97449.06;;;9.90;45.92
61324;BME280;47203;48.428;11.974;2024-02-21T06:11:20;97445.66;;;9.89;45.69
61324;BME280;47203;48.428;11.974;2024-02-21T06:13:24;97448.84;;;9.91;45.83
61324;BME280;47203;48.428;11.974;2024-02-21T06:15:29;97458.31;;;9.92;45.82
61324;BME280;47203;48.428;11.974;2024-02-21T06:17:32;97449.94;;;9.95;46.06
61324;BME280;47203;48.428;11.974;2024-02-21T06:19:36;97444.19;;;9.99;45.73
61324;BME280;47203;48.428;11.974;2024-02-21T06:21:39;97451.06;;;10.00;45.77
61324;BME280;47203;48.428;11.974;2024-02-21T06:23:41;97451.63;;;10.02;45.65
61324;BME280;47203;48.428;11.974;2024-02-21T06:25:45;97451.63;;;10.02;45.77
61324;BME280;47203;48.428;11.974;2024-02-21T06:27:50;97449.78;;;10.02;45.56
61324;BME280;47203;48.428;11.974;2024-02-21T06:29:53;97453.44;;;10.01;45.48
61324;BME280;47203;48.428;11.974;2024-02-21T06:31:57;97459.97;;;9.99;45.60
61324;BME280;47203;48.428;11.974;2024-02-21T06:34:00;97456.56;;;9.98;45.58
61324;BME280;47203;48.428;11.974;2024-02-21T06:36:05;97460.22;;;9.97;45.58
61324;BME280;47203;48.428;11.974;2024-02-21T06:38:08;97454.41;;;9.95;45.58
61324;BME280;47203;48.428;11.974;2024-02-21T06:40:12;97456.28;;;9.94;45.60
61324;BME280;47203;48.428;11.974;2024-02-21T06:42:16;97455.44;;;9.94;45.62
61324;BME280;47203;48.428;11.974;2024-02-21T06:44:19;97449.41;;;9.93;45.70
61324;BME280;47203;48.428;11.974;2024-02-21T06:46:24;97440.94;;;9.91;45.68
61324;BME280;47203;48.428;11.974;2024-02-21T06:48:29;97452.28;;;9.92;45.61
61324;BME280;47203;48.428;11.974;2024-02-21T06:50:33;97453.06;;;9.92;45.61
61324;BME280;47203;48.428;11.974;2024-02-21T06:52:36;97452.81;;;9.94;45.63
61324;BME280;47203;48.428;11.974;2024-02-21T06:54:40;97450.75;;;9.96;45.69
61324;BME280;47203;48.428;11.974;2024-02-21T06:56:43;97450.81;;;10.01;45.68
61324;BME280;47203;48.428;11.974;2024-02-21T06:58:47;97454.88;;;10.09;45.68
61324;BME280;47203;48.428;11.974;2024-02-21T07:00:50;97450.22;;;10.16;45.76
61324;BME280;47203;48.428;11.974;2024-02-21T07:02:54;97453.72;;;10.22;45.62
61324;BME280;47203;48.428;11.974;2024-02-21T07:04:58;97462.72;;;10.26;45.63
61324;BME280;47203;48.428;11.974;2024-02-21T07:07:01;97457.78;;;10.29;45.53
61324;BME280;47203;48.428;11.974;2024-02-21T07:09:05;97453.84;;;10.32;45.49
61324;BME280;47203;48.428;11.974;2024-02-21T07:11:11;97441.50;;;10.33;45.48
61324;BME280;47203;48.428;11.974;2024-02-21T07:13:15;97446.56;;;10.34;45.48
61324;BME280;47203;48.428;11.974;2024-02-21T07:15:19;97446.78;;;10.33;45.42
61324;BME280;47203;48.428;11.974;2024-02-21T07:17:22;97447.81;;;10.31;45.49
61324;BME280;47203;48.428;11.974;2024-02-21T07:19:25;97439.38;;;10.29;45.42
61324;BME280;47203;48.428;11.974;2024-02-21T07:21:29;97439.03;;;10.26;45.52
61324;BME280;47203;48.428;11.974;2024-02-21T07:23:32;97438.81;;;10.27;45.39
61324;BME280;47203;48.428;11.974;2024-02-21T07:25:36;97436.41;;;10.26;45.46
61324;BME280;47203;48.428;11.974;2024-02-21T07:27:39;97443.81;;;10.29;45.42
61324;BME280;47203;48.428;11.974;2024-02-21T07:29:44;97441.75;;;10.31;45.48
61324;BME280;47203;48.428;11.974;2024-02-21T07:31:50;97432.00;;;10.31;45.48
61324;BME280;47203;48.428;11.974;2024-02-21T07:33:55;97432.59;;;10.34;45.49
61324;BME280;47203;48.428;11.974;2024-02-21T07:35:59;97444.22;;;10.38;45.48
61324;BME280;47203;48.428;11.974;2024-02-21T07:38:04;97437.44;;;10.42;45.62
61324;BME280;47203;48.428;11.974;2024-02-21T07:40:13;97455.38;;;10.45;45.49
61324;BME280;47203;48.428;11.974;2024-02-21T07:42:17;97444.09;;;10.50;45.28
61324;BME280;47203;48.428;11.974;2024-02-21T07:44:20;97451.50;;;10.53;45.28
61324;BME280;47203;48.428;11.974;2024-02-21T07:46:24;97452.34;;;10.58;45.31
61324;BME280;47203;48.428;11.974;2024-02-21T07:48:26;97447.16;;;10.63;45.42
61324;BME280;47203;48.428;11.974;2024-02-21T07:50:33;97439.06;;;10.70;45.15
61324;BME280;47203;48.428;11.974;2024-02-21T07:52:37;97440.16;;;10.74;45.28
61324;BME280;47203;48.428;11.974;2024-02-21T07:54:41;97432.56;;;10.78;45.13
61324;BME280;47203;48.428;11.974;2024-02-21T07:56:45;97430.53;;;10.85;45.07
61324;BME280;47203;48.428;11.974;2024-02-21T07:58:49;97434.03;;;10.91;45.03
61324;BME280;47203;48.428;11.974;2024-02-21T08:00:54;97419.84;;;10.97;45.03
61324;BME280;47203;48.428;11.974;2024-02-21T08:02:57;97424.91;;;11.04;44.83
61324;BME280;47203;48.428;11.974;2024-02-21T08:05:00;97411.81;;;11.09;44.91
61324;BME280;47203;48.428;11.974;2024-02-21T08:07:06;97406.09;;;11.17;44.79
61324;BME280;47203;48.428;11.974;2024-02-21T08:09:09;97409.28;;;11.24;44.69
61324;BME280;47203;48.428;11.974;2024-02-21T08:11:14;97401.44;;;11.29;44.69
61324;BME280;47203;48.428;11.974;2024-02-21T08:13:18;97396.19;;;11.34;44.67
61324;BME280;47203;48.428;11.974;2024-02-21T08:15:23;97393.34;;;11.41;44.62
61324;BME280;47203;48.428;11.974;2024-02-21T08:17:30;97382.84;;;11.46;44.50
61324;BME280;47203;48.428;11.974;2024-02-21T08:19:34;97376.00;;;11.50;44.25
61324;BME280;47203;48.428;11.974;2024-02-21T08:21:37;97373.38;;;11.50;44.37
61324;BME280;47203;48.428;11.974;2024-02-21T08:23:40;97378.97;;;11.59;44.38
61324;BME280;47203;48.428;11.974;2024-02-21T08:25:45;97378.53;;;11.73;44.28
61324;BME280;47203;48.428;11.974;2024-02-21T08:27:50;97379.94;;;11.91;44.29
61324;BME280;47203;48.428;11.974;2024-02-21T08:29:53;97377.69;;;12.10;44.10
61324;BME280;47203;48.428;11.974;2024-02-21T08:31:57;97373.78;;;12.28;43.88
61324;BME280;47203;48.428;11.974;2024-02-21T08:34:01;97375.44;;;12.44;43.86
61324;BME280;47203;48.428;11.974;2024-02-21T08:36:06;97379.19;;;12.64;43.59
61324;BME280;47203;48.428;11.974;2024-02-21T08:38:10;97377.09;;;12.81;43.64
61324;BME280;47203;48.428;11.974;2024-02-21T08:40:15;97369.47;;;13.00;43.46
61324;BME280;47203;48.428;11.974;2024-02-21T08:42:23;97374.22;;;13.24;43.47
61324;BME280;47203;48.428;11.974;2024-02-21T08:44:28;97373.47;;;13.49;43.30
61324;BME280;47203;48.428;11.974;2024-02-21T08:46:31;97381.88;;;13.72;43.23
61324;BME280;47203;48.428;11.974;2024-02-21T08:48:35;97378.38;;;13.97;43.13
61324;BME280;47203;48.428;11.974;2024-02-21T08:50:39;97377.50;;;14.22;42.92
61324;BME280;47203;48.428;11.974;2024-02-21T08:52:43;97375.78;;;14.47;42.69
61324;BME280;47203;48.428;11.974;2024-02-21T08:54:46;97380.13;;;14.77;42.80
61324;BME280;47203;48.428;11.974;2024-02-21T08:56:50;97394.47;;;15.16;42.54
61324;BME280;47203;48.428;11.974;2024-02-21T08:58:53;97380.88;;;15.52;42.24
61324;BME280;47203;48.428;11.974;2024-02-21T09:00:58;97384.06;;;15.83;41.98
61324;BME280;47203;48.428;11.974;2024-02-21T09:03:02;97381.16;;;16.09;41.35
61324;BME280;47203;48.428;11.974;2024-02-21T09:05:07;97379.06;;;16.25;41.07
61324;BME280;47203;48.428;11.974;2024-02-21T09:07:11;97381.84;;;16.39;41.14
61324;BME280;47203;48.428;11.974;2024-02-21T09:09:14;97375.31;;;16.50;40.79
61324;BME280;47203;48.428;11.974;2024-02-21T09:11:17;97383.59;;;16.68;40.75
61324;BME280;47203;48.428;11.974;2024-02-21T09:13:21;97378.50;;;16.90;40.46
61324;BME280;47203;48.428;11.974;2024-02-21T09:15:25;97376.63;;;17.10;40.03
61324;BME280;47203;48.428;11.974;2024-02-21T09:17:31;97380.03;;;17.30;39.82
61324;BME280;47203;48.428;11.974;2024-02-21T09:19:35;97372.28;;;17.47;39.51
61324;BME280;47203;48.428;11.974;2024-02-21T09:21:39;97367.56;;;17.58;39.34
61324;BME280;47203;48.428;11.974;2024-02-21T09:23:42;97365.53;;;17.69;39.02
61324;BME280;47203;48.428;11.974;2024-02-21T09:25:45;97370.38;;;17.80;38.63
61324;BME280;47203;48.428;11.974;2024-02-21T09:27:49;97366.16;;;17.93;38.63
61324;BME280;47203;48.428;11.974;2024-02-21T09:29:54;97368.22;;;18.10;38.19
61324;BME280;47203;48.428;11.974;2024-02-21T09:31:57;97369.09;;;18.34;37.91
61324;BME280;47203;48.428;11.974;2024-02-21T09:34:02;97365.22;;;18.54;37.27
61324;BME280;47203;48.428;11.974;2024-02-21T09:36:06;97372.34;;;18.81;36.88
61324;BME280;47203;48.428;11.974;2024-02-21T09:38:09;97366.44;;;19.07;36.33
61324;BME280;47203;48.428;11.974;2024-02-21T09:40:16;97372.56;;;19.30;35.67
61324;BME280;47203;48.428;11.974;2024-02-21T09:42:21;97362.47;;;19.49;35.26
61324;BME280;47203;48.428;11.974;2024-02-21T09:44:31;97355.31;;;19.67;34.95
61324;BME280;47203;48.428;11.974;2024-02-21T09:49:21;97339.50;;;20.20;34.55
61324;BME280;47203;48.428;11.974;2024-02-21T09:51:34;97338.75;;;20.54;34.17
61324;BME280;47203;48.428;11.974;2024-02-21T09:53:38;97337.53;;;20.87;33.81
61324;BME280;47203;48.428;11.974;2024-02-21T09:55:50;97340.63;;;21.15;33.20
61324;BME280;47203;48.428;11.974;2024-02-21T09:57:54;97337.91;;;21.33;33.04
61324;BME280;47203;48.428;11.974;2024-02-21T09:59:58;97340.53;;;21.50;32.85
61324;BME280;47203;48.428;11.974;2024-02-21T10:02:02;97335.13;;;21.76;32.46
61324;BME280;47203;48.428;11.974;2024-02-21T10:04:08;97324.44;;;21.97;31.89
61324;BME280;47203;48.428;11.974;2024-02-21T10:06:12;97326.44;;;22.09;31.62
61324;BME280;47203;48.428;11.974;2024-02-21T10:08:16;97322.91;;;22.18;31.37
61324;BME280;47203;48.428;11.974;2024-02-21T10:10:19;97320.66;;;22.28;31.37
61324;BME280;47203;48.428;11.974;2024-02-21T10:12:24;97317.41;;;22.44;31.09
61324;BME280;47203;48.428;11.974;2024-02-21T10:14:28;97319.38;;;22.56;30.76
61324;BME280;47203;48.428;11.974;2024-02-21T10:16:31;97318.03;;;22.83;30.55
61324;BME280;47203;48.428;11.974;2024-02-21T10:18:35;97313.38;;;23.13;30.21
61324;BME280;47203;48.428;11.974;2024-02-21T10:20:41;97311.06;;;23.37;29.85
61324;BME280;47203;48.428;11.974;2024-02-21T10:22:45;97318.59;;;23.56;29.62
61324;BME280;47203;48.428;11.974;2024-02-21T10:24:49;97302.81;;;23.66;29.35
61324;BME280;47203;48.428;11.974;2024-02-21T10:27:01;97293.63;;;23.80;29.00
61324;BME280;47203;48.428;11.974;2024-02-21T10:29:06;97301.94;;;23.99;28.98
61324;BME280;47203;48.428;11.974;2024-02-21T10:31:09;97297.31;;;24.25;28.74
61324;BME280;47203;48.428;11.974;2024-02-21T10:33:16;97302.50;;;24.46;28.23
61324;BME280;47203;48.428;11.974;2024-02-21T10:35:27;97286.66;;;24.69;27.98
61324;BME280;47203;48.428;11.974;2024-02-21T10:37:33;97292.03;;;24.97;27.78
61324;BME280;47203;48.428;11.974;2024-02-21T10:39:38;97284.66;;;25.26;27.28
61324;BME280;47203;48.428;11.974;2024-02-21T10:41:43;97291.41;;;25.48;26.83
61324;BME280;47203;48.428;11.974;2024-02-21T10:43:52;97284.09;;;25.65;26.59
61324;BME280;47203;48.428;11.974;2024-02-21T10:46:00;97278.91;;;25.91;26.38
61324;BME280;47203;48.428;11.974;2024-02-21T10:48:11;97272.44;;;26.12;26.06
61324;BME280;47203;48.428;11.974;2024-02-21T10:50:18;97271.91;;;26.22;26.07
61324;BME280;47203;48.428;11.974;2024-02-21T10:52:36;97262.56;;;26.36;25.89